Time;durP1;ratioP1;P1;durP2;ratioP2;P2;SDS_P1;SDS_P2;PMS_P1;PMS_P2;Temp;Humidity;BMP_temperature;BMP_pressure;BME280_temperature;BME280_humidity;BME280_pressure;Samples;Min_cycle;Max_cycle;Signal;HPM_P1;HPM_P2
2021/09/02 00:01:04;;;;;;;7.83;7.00;;;13.10;99.90;;;;;;5014437;28;20202;-60
2021/09/02 00:03:29;;;;;;;8.63;7.73;;;13.00;99.90;;;;;;5014612;28;20645;-60
2021/09/02 00:05:55;;;;;;;10.70;8.00;;;13.00;99.90;;;;;;5014313;28;20199;-60
2021/09/02 00:08:20;;;;;;;9.40;8.30;;;13.10;99.90;;;;;;5014194;28;20262;-60
2021/09/02 00:10:46;;;;;;;9.63;7.80;;;13.00;99.90;;;;;;5014744;28;20181;-60
2021/09/02 00:13:12;;;;;;;9.50;8.60;;;13.00;99.90;;;;;;5014255;28;20167;-60
2021/09/02 00:15:38;;;;;;;8.57;7.77;;;12.90;99.90;;;;;;5014209;28;20418;-60
2021/09/02 00:18:03;;;;;;;8.70;7.80;;;12.90;99.90;;;;;;5014062;28;20404;-60
2021/09/02 00:20:29;;;;;;;8.23;7.43;;;12.80;99.90;;;;;;5013830;28;20198;-60
2021/09/02 00:22:55;;;;;;;9.90;8.37;;;12.80;99.90;;;;;;5014171;28;20514;-60
2021/09/02 00:25:21;;;;;;;8.77;7.93;;;12.90;99.90;;;;;;5014194;28;20163;-60
2021/09/02 00:27:46;;;;;;;8.63;7.43;;;12.80;99.90;;;;;;5013917;28;20679;-60
2021/09/02 00:30:12;;;;;;;8.80;7.57;;;12.80;99.90;;;;;;5013673;28;20441;-60
2021/09/02 00:32:38;;;;;;;8.53;7.73;;;12.80;99.90;;;;;;5014196;28;20225;-60
2021/09/02 00:35:05;;;;;;;8.50;7.70;;;12.80;99.90;;;;;;5013280;28;20261;-60
2021/09/02 00:37:30;;;;;;;8.73;7.93;;;12.70;99.90;;;;;;5014141;28;20244;-60
2021/09/02 00:39:56;;;;;;;11.20;8.70;;;12.70;99.90;;;;;;5013518;28;20462;-60
2021/09/02 00:42:22;;;;;;;8.33;7.53;;;12.70;99.90;;;;;;5013655;28;20203;-60
2021/09/02 00:44:48;;;;;;;8.87;8.07;;;12.60;99.90;;;;;;5013755;28;20699;-60
2021/09/02 00:47:22;;;;;;;8.70;7.57;;;12.60;99.90;;;;;;5013651;28;20636;-60
2021/09/02 00:49:48;;;;;;;10.93;7.97;;;12.60;99.90;;;;;;5013330;28;20414;-60
2021/09/02 00:52:17;;;;;;;10.60;8.30;;;12.60;99.90;;;;;;5013553;28;20827;-60
2021/09/02 00:54:53;;;;;;;8.23;7.23;;;12.50;99.90;;;;;;5013429;28;20217;-60
2021/09/02 00:57:25;;;;;;;10.37;7.60;;;12.40;99.90;;;;;;5013530;28;20910;-60
2021/09/02 00:59:52;;;;;;;11.27;9.23;;;12.40;99.90;;;;;;5013350;28;20414;-60
2021/09/02 01:02:22;;;;;;;9.00;8.10;;;12.30;99.90;;;;;;5013421;28;20453;-60
2021/09/02 01:04:51;;;;;;;8.77;7.97;;;12.30;99.90;;;;;;5013750;28;20776;-60
2021/09/02 01:07:19;;;;;;;9.63;8.63;;;12.40;99.90;;;;;;5013085;28;20509;-60
2021/09/02 01:09:45;;;;;;;9.20;8.30;;;12.40;99.90;;;;;;5013229;28;20444;-60
2021/09/02 01:12:45;;;;;;;15.83;10.03;;;12.40;99.90;;;;;;5013240;28;20429;-60
2021/09/02 01:15:14;;;;;;;10.23;9.07;;;12.40;99.90;;;;;;4970518;28;20205;-60
2021/09/02 01:17:44;;;;;;;9.90;9.07;;;12.30;99.90;;;;;;5012874;28;20461;-60
2021/09/02 01:20:12;;;;;;;10.17;9.07;;;12.20;99.90;;;;;;5012690;28;20465;-60
2021/09/02 01:22:41;;;;;;;9.90;8.70;;;12.00;99.90;;;;;;5013039;28;20433;-60
2021/09/02 01:25:09;;;;;;;9.00;8.17;;;12.00;99.90;;;;;;5013020;28;20428;-60
2021/09/02 01:27:36;;;;;;;9.37;8.50;;;12.10;99.90;;;;;;5012936;28;20466;-60
2021/09/02 01:30:06;;;;;;;9.10;8.27;;;12.10;99.90;;;;;;5012583;28;20426;-60
2021/09/02 01:32:34;;;;;;;8.40;7.53;;;12.10;99.90;;;;;;5012914;28;20438;-60
2021/09/02 01:35:00;;;;;;;13.37;8.30;;;12.00;99.90;;;;;;5012825;28;20425;-60
2021/09/02 01:37:35;;;;;;;9.60;7.73;;;12.10;99.90;;;;;;5012719;28;20536;-60
2021/09/02 01:40:01;;;;;;;9.83;8.83;;;12.10;99.90;;;;;;5012473;28;20476;-60
2021/09/02 01:42:26;;;;;;;10.10;7.77;;;12.10;99.90;;;;;;5012738;28;20425;-60
2021/09/02 01:44:52;;;;;;;9.53;8.13;;;12.10;99.90;;;;;;5012605;28;20229;-60
2021/09/02 01:47:25;;;;;;;9.63;8.43;;;12.00;99.90;;;;;;5011614;28;20737;-60
2021/09/02 01:49:52;;;;;;;11.23;8.50;;;12.00;99.90;;;;;;5012321;28;20210;-60
2021/09/02 01:52:19;;;;;;;8.43;7.67;;;12.00;99.90;;;;;;5012534;28;20468;-60
2021/09/02 01:54:45;;;;;;;8.47;7.67;;;12.00;99.90;;;;;;5012631;28;20414;-60
2021/09/02 01:57:11;;;;;;;8.33;7.53;;;12.00;99.90;;;;;;5012474;28;20540;-60
2021/09/02 01:59:36;;;;;;;9.10;7.60;;;12.00;99.90;;;;;;5012298;28;20499;-60
2021/09/02 02:02:02;;;;;;;8.70;7.87;;;12.00;99.90;;;;;;5012629;28;20541;-60
2021/09/02 02:04:28;;;;;;;9.50;8.60;;;11.90;99.90;;;;;;5012542;28;20637;-60
2021/09/02 02:06:53;;;;;;;8.73;7.77;;;11.90;99.90;;;;;;5012261;28;20501;-60
2021/09/02 02:09:19;;;;;;;8.43;7.63;;;11.90;99.90;;;;;;5012062;28;20175;-60
2021/09/02 02:11:44;;;;;;;7.90;7.13;;;11.80;99.90;;;;;;5012263;28;20178;-60
2021/09/02 02:14:11;;;;;;;8.60;7.80;;;11.70;99.90;;;;;;5010949;28;20229;-60
2021/09/02 02:16:37;;;;;;;9.00;8.10;;;11.70;99.90;;;;;;5012224;28;20237;-60
2021/09/02 02:19:02;;;;;;;8.03;7.30;;;11.80;99.90;;;;;;5010617;28;20449;-60
2021/09/02 02:21:28;;;;;;;8.30;7.20;;;11.80;99.90;;;;;;5012132;28;20563;-60
2021/09/02 02:23:53;;;;;;;9.23;7.80;;;11.70;99.90;;;;;;5012206;28;20183;-60
2021/09/02 02:26:19;;;;;;;7.90;6.37;;;11.70;99.90;;;;;;5012107;28;20246;-60
2021/09/02 02:28:44;;;;;;;7.93;7.10;;;11.70;99.90;;;;;;5011777;28;20727;-60
2021/09/02 02:31:10;;;;;;;9.50;8.40;;;11.70;99.90;;;;;;5012045;28;20218;-60
2021/09/02 02:33:35;;;;;;;9.57;8.40;;;11.70;99.90;;;;;;5012055;28;20549;-60
2021/09/02 02:36:01;;;;;;;9.40;8.40;;;11.60;99.90;;;;;;5012122;28;20167;-59
2021/09/02 02:38:26;;;;;;;12.70;8.57;;;11.70;99.90;;;;;;5011714;28;20571;-60
2021/09/02 02:40:52;;;;;;;8.50;7.63;;;11.60;99.90;;;;;;5011653;28;20195;-60
2021/09/02 02:43:17;;;;;;;8.90;8.00;;;11.60;99.90;;;;;;5011939;28;20171;-60
2021/09/02 02:45:43;;;;;;;8.13;7.33;;;11.60;99.90;;;;;;5012029;28;20304;-60
2021/09/02 02:48:08;;;;;;;11.57;10.47;;;11.50;99.90;;;;;;5011753;28;20187;-60
2021/09/02 02:50:34;;;;;;;10.70;8.57;;;11.50;99.90;;;;;;5011639;28;20175;-60
2021/09/02 02:52:59;;;;;;;9.60;8.17;;;11.50;99.90;;;;;;5011976;28;20243;-60
2021/09/02 02:55:25;;;;;;;8.50;7.60;;;11.40;99.90;;;;;;5011811;28;20655;-60
2021/09/02 02:57:53;;;;;;;8.87;7.97;;;11.30;99.90;;;;;;5013528;28;20265;-59
2021/09/02 03:00:19;;;;;;;8.80;7.90;;;11.30;99.90;;;;;;5015401;28;20541;-60
2021/09/02 03:02:44;;;;;;;9.50;8.50;;;11.30;99.90;;;;;;5014184;28;20955;-60
2021/09/02 03:05:10;;;;;;;10.60;9.60;;;11.40;99.90;;;;;;5015572;28;20171;-60
2021/09/02 03:07:36;;;;;;;9.60;8.60;;;11.40;99.90;;;;;;5015468;28;20266;-60
2021/09/02 03:10:04;;;;;;;10.57;9.47;;;11.40;99.90;;;;;;5015278;28;20167;-60
2021/09/02 03:12:29;;;;;;;8.33;7.60;;;11.30;99.90;;;;;;5015574;28;20466;-60
2021/09/02 03:14:55;;;;;;;8.90;8.10;;;11.20;99.90;;;;;;5014092;28;20453;-60
2021/09/02 03:17:20;;;;;;;7.60;6.90;;;11.30;99.90;;;;;;5015154;28;20207;-60
2021/09/02 03:19:46;;;;;;;8.90;8.10;;;11.30;99.90;;;;;;5015023;28;20258;-60
2021/09/02 03:22:11;;;;;;;9.47;8.00;;;11.40;99.90;;;;;;5015442;28;20206;-60
2021/09/02 03:24:37;;;;;;;8.90;8.10;;;11.40;99.90;;;;;;5015247;28;20253;-60
2021/09/02 03:27:02;;;;;;;10.50;9.43;;;11.30;99.90;;;;;;5015202;28;20174;-60
2021/09/02 03:29:28;;;;;;;9.30;8.50;;;11.20;99.90;;;;;;5014859;28;20171;-60
2021/09/02 03:31:54;;;;;;;10.40;9.40;;;11.20;99.90;;;;;;5015006;28;20671;-59
2021/09/02 03:34:19;;;;;;;10.80;8.77;;;11.30;99.90;;;;;;5015170;28;20446;-60
2021/09/02 03:36:46;;;;;;;10.17;9.17;;;11.30;99.90;;;;;;5014971;28;20317;-59
2021/09/02 03:39:12;;;;;;;9.03;7.83;;;11.20;99.90;;;;;;5014734;28;20174;-60
2021/09/02 03:41:39;;;;;;;7.93;7.23;;;11.20;99.90;;;;;;5014690;28;20464;-60
2021/09/02 03:44:05;;;;;;;8.40;7.60;;;11.20;99.90;;;;;;5014833;28;20418;-59
2021/09/02 03:46:30;;;;;;;8.17;7.37;;;11.10;99.90;;;;;;5014691;28;20795;-60
2021/09/02 03:48:56;;;;;;;9.43;8.30;;;11.10;99.90;;;;;;5014449;28;20186;-60
2021/09/02 03:51:21;;;;;;;11.23;10.00;;;11.10;99.90;;;;;;5014711;28;20171;-60
2021/09/02 03:53:47;;;;;;;11.87;10.27;;;11.20;99.90;;;;;;5014685;28;20171;-60
2021/09/02 03:56:12;;;;;;;10.30;8.70;;;11.20;99.90;;;;;;5014705;28;20668;-60
2021/09/02 03:58:38;;;;;;;8.30;7.17;;;11.20;99.90;;;;;;5014656;28;20195;-59
2021/09/02 04:01:03;;;;;;;9.07;8.17;;;11.10;99.90;;;;;;5013260;28;20211;-60
2021/09/02 04:03:29;;;;;;;10.20;8.37;;;10.90;99.90;;;;;;5014731;28;20159;-60
2021/09/02 04:05:54;;;;;;;12.53;8.50;;;10.90;99.90;;;;;;5014498;28;20663;-60
2021/09/02 04:08:20;;;;;;;9.83;8.83;;;11.00;99.90;;;;;;5013816;28;20229;-60
2021/09/02 04:10:45;;;;;;;9.07;8.13;;;11.00;99.90;;;;;;5013703;28;20721;-60
2021/09/02 04:13:11;;;;;;;9.00;8.10;;;11.00;99.90;;;;;;5014788;28;20225;-60
2021/09/02 04:15:36;;;;;;;9.03;8.00;;;11.00;99.90;;;;;;5014224;28;20175;-60
2021/09/02 04:18:02;;;;;;;8.60;7.70;;;10.90;99.90;;;;;;5014622;28;20203;-60
2021/09/02 04:20:27;;;;;;;12.60;8.67;;;11.00;99.90;;;;;;5013898;28;20195;-60
2021/09/02 04:22:53;;;;;;;9.90;8.90;;;10.90;99.90;;;;;;5014146;28;20214;-60
2021/09/02 04:25:18;;;;;;;10.97;8.40;;;10.90;99.90;;;;;;5014159;28;20171;-60
2021/09/02 04:27:44;;;;;;;10.13;9.13;;;10.90;99.90;;;;;;5013953;28;20723;-60
2021/09/02 04:30:13;;;;;;;9.13;8.20;;;10.90;99.90;;;;;;5013726;28;20620;-60
2021/09/02 04:32:38;;;;;;;9.13;8.33;;;10.80;99.90;;;;;;5014014;28;20167;-60
2021/09/02 04:35:05;;;;;;;9.10;8.17;;;10.80;99.90;;;;;;5013924;28;20787;-59
2021/09/02 04:37:35;;;;;;;9.80;8.40;;;10.90;99.90;;;;;;5013770;28;20687;-60
2021/09/02 04:40:01;;;;;;;9.57;8.67;;;10.90;99.90;;;;;;5012312;28;20434;-60
2021/09/02 04:42:26;;;;;;;9.47;8.67;;;10.80;99.90;;;;;;5013702;28;20472;-60
2021/09/02 04:44:52;;;;;;;10.17;9.17;;;10.90;99.90;;;;;;5013694;28;20178;-60
2021/09/02 04:47:17;;;;;;;10.10;9.10;;;10.90;99.90;;;;;;5013616;28;20233;-60
2021/09/02 04:49:43;;;;;;;9.90;8.93;;;10.90;99.90;;;;;;5013437;28;20632;-60
2021/09/02 04:52:08;;;;;;;9.50;8.30;;;10.90;99.90;;;;;;5013664;28;20178;-59
2021/09/02 04:54:34;;;;;;;10.07;8.83;;;10.90;99.90;;;;;;5013749;28;20176;-60
2021/09/02 04:56:59;;;;;;;10.37;8.70;;;10.80;99.90;;;;;;5013478;28;20175;-60
2021/09/02 04:59:25;;;;;;;10.67;9.13;;;10.80;99.90;;;;;;5013107;28;20159;-59
2021/09/02 05:01:50;;;;;;;11.57;10.23;;;10.80;99.90;;;;;;5013329;28;20365;-60
2021/09/02 05:04:16;;;;;;;10.40;9.40;;;10.90;99.90;;;;;;5013508;28;20199;-60
2021/09/02 05:06:41;;;;;;;9.10;8.23;;;10.80;99.90;;;;;;5013304;28;20190;-60
2021/09/02 05:09:07;;;;;;;10.80;9.43;;;10.90;99.90;;;;;;5012962;28;20197;-60
2021/09/02 05:11:32;;;;;;;11.20;8.73;;;10.90;99.90;;;;;;5013169;28;20170;-60
2021/09/02 05:13:58;;;;;;;10.73;9.60;;;11.00;99.90;;;;;;5013094;28;20536;-60
2021/09/02 05:16:23;;;;;;;9.70;8.80;;;11.00;99.90;;;;;;5013088;28;20179;-60
2021/09/02 05:18:49;;;;;;;8.73;7.90;;;11.20;99.90;;;;;;5012798;28;20210;-60
2021/09/02 05:21:14;;;;;;;8.30;7.60;;;11.20;99.90;;;;;;5012695;28;20274;-60
2021/09/02 05:23:40;;;;;;;15.13;9.20;;;11.30;99.90;;;;;;5013507;28;20205;-60
2021/09/02 05:26:05;;;;;;;9.10;8.20;;;11.50;99.90;;;;;;5012954;28;20171;-60
2021/09/02 05:28:31;;;;;;;10.20;9.23;;;11.50;99.90;;;;;;5012617;28;20234;-60
2021/09/02 05:30:56;;;;;;;9.23;8.33;;;11.70;99.90;;;;;;5013061;28;20225;-60
2021/09/02 05:33:22;;;;;;;9.93;8.93;;;11.70;99.90;;;;;;5012897;28;20175;-59
2021/09/02 05:35:47;;;;;;;9.73;8.80;;;11.80;99.90;;;;;;5012857;28;20210;-60
2021/09/02 05:38:13;;;;;;;9.70;8.77;;;11.90;99.90;;;;;;5012651;28;20277;-60
2021/09/02 05:40:39;;;;;;;11.10;10.00;;;12.10;99.90;;;;;;5012405;28;20696;-59
2021/09/02 05:43:04;;;;;;;9.00;8.10;;;12.20;99.90;;;;;;5012689;28;20167;-60
2021/09/02 05:45:30;;;;;;;10.07;8.70;;;12.20;99.90;;;;;;5012625;28;20250;-60
2021/09/02 05:47:55;;;;;;;10.10;9.17;;;12.40;99.90;;;;;;5012559;28;20226;-60
2021/09/02 05:50:21;;;;;;;10.50;9.43;;;12.50;99.90;;;;;;5012305;28;20174;-60
2021/09/02 05:52:46;;;;;;;9.83;9.00;;;12.60;99.90;;;;;;5012577;28;20182;-60
2021/09/02 05:55:12;;;;;;;10.30;9.30;;;12.70;99.90;;;;;;5012435;28;20552;-60
2021/09/02 05:57:40;;;;;;;9.70;8.50;;;12.90;99.90;;;;;;5012730;28;20202;-60
2021/09/02 06:00:07;;;;;;;11.13;8.80;;;13.00;99.90;;;;;;5012022;28;20194;-60
2021/09/02 06:02:32;;;;;;;11.13;9.67;;;13.10;99.90;;;;;;5012512;28;20938;-60
2021/09/02 06:04:58;;;;;;;15.73;13.97;;;13.30;99.90;;;;;;5012427;28;20418;-60
2021/09/02 06:07:23;;;;;;;10.40;9.17;;;13.30;99.90;;;;;;5012230;28;20186;-60
2021/09/02 06:09:48;;;;;;;12.50;9.40;;;13.40;99.90;;;;;;5011985;28;20194;-60
2021/09/02 06:12:14;;;;;;;11.40;9.50;;;13.50;99.90;;;;;;5012466;28;20177;-60
2021/09/02 06:14:40;;;;;;;12.40;9.40;;;13.70;99.90;;;;;;5012280;28;20170;-60
2021/09/02 06:17:05;;;;;;;11.37;9.50;;;13.90;99.90;;;;;;5012015;28;20207;-60
2021/09/02 06:19:31;;;;;;;10.00;8.60;;;14.00;99.90;;;;;;5012042;28;20645;-60
2021/09/02 06:21:56;;;;;;;9.80;8.80;;;14.30;99.90;;;;;;5012043;28;20202;-60
2021/09/02 06:24:22;;;;;;;10.80;9.10;;;14.50;99.90;;;;;;5012148;28;20170;-60
2021/09/02 06:26:47;;;;;;;9.33;8.50;;;14.60;99.90;;;;;;5012046;28;20221;-60
2021/09/02 06:29:13;;;;;;;10.83;9.70;;;14.70;99.90;;;;;;5011742;28;20175;-60
2021/09/02 06:31:38;;;;;;;10.20;9.30;;;14.80;99.90;;;;;;5012087;28;20186;-60
2021/09/02 06:34:04;;;;;;;10.50;9.10;;;14.90;99.90;;;;;;5015900;28;20174;-60
2021/09/02 06:36:29;;;;;;;10.17;9.03;;;15.00;99.90;;;;;;5016164;28;20174;-60
2021/09/02 06:38:55;;;;;;;10.73;9.73;;;15.20;99.90;;;;;;5015714;28;20190;-60
2021/09/02 06:41:20;;;;;;;10.03;9.10;;;15.40;99.90;;;;;;5015928;28;20345;-60
2021/09/02 06:43:46;;;;;;;10.40;9.40;;;15.50;99.90;;;;;;5015949;28;20300;-60
2021/09/02 06:46:11;;;;;;;11.73;10.63;;;15.70;99.90;;;;;;5015920;28;20175;-60
2021/09/02 06:48:37;;;;;;;12.10;10.93;;;15.80;99.90;;;;;;5015567;28;20190;-60
2021/09/02 06:51:02;;;;;;;10.97;9.93;;;16.00;99.90;;;;;;5015868;28;20175;-60
2021/09/02 06:53:28;;;;;;;12.03;11.00;;;16.10;99.90;;;;;;5015709;28;20181;-60
2021/09/02 06:55:53;;;;;;;13.60;10.20;;;15.90;99.90;;;;;;5015718;28;20179;-60
2021/09/02 06:58:19;;;;;;;11.77;10.67;;;16.00;99.90;;;;;;5015522;28;20199;-60
2021/09/02 07:00:44;;;;;;;12.37;11.27;;;16.20;99.90;;;;;;5015374;28;20199;-61
2021/09/02 07:03:11;;;;;;;12.57;10.80;;;16.40;99.90;;;;;;5015666;28;20228;-60
2021/09/02 07:05:37;;;;;;;12.50;11.30;;;16.60;99.90;;;;;;5015608;28;20159;-60
2021/09/02 07:08:02;;;;;;;12.37;11.17;;;16.80;99.90;;;;;;5015394;28;20456;-60
2021/09/02 07:10:28;;;;;;;13.80;12.60;;;17.00;99.90;;;;;;5015281;28;20171;-61
2021/09/02 07:12:53;;;;;;;11.80;10.70;;;17.20;99.90;;;;;;5015431;28;20175;-61
2021/09/02 07:15:19;;;;;;;12.37;10.80;;;17.30;99.90;;;;;;5015438;28;20178;-61
2021/09/02 07:17:44;;;;;;;12.83;11.73;;;17.50;99.90;;;;;;5015387;28;20202;-61
2021/09/02 07:20:11;;;;;;;10.20;9.30;;;17.70;99.90;;;;;;5015422;28;20218;-61
2021/09/02 07:22:37;;;;;;;13.37;10.50;;;17.90;99.90;;;;;;5015294;28;20171;-61
2021/09/02 07:25:03;;;;;;;11.43;10.10;;;18.10;99.90;;;;;;5015241;28;20476;-61
2021/09/02 07:27:29;;;;;;;12.63;11.27;;;18.20;99.90;;;;;;5015316;28;20191;-61
2021/09/02 07:29:54;;;;;;;20.70;11.53;;;18.40;99.90;;;;;;5014813;28;20484;-60
2021/09/02 07:32:20;;;;;;;12.40;11.07;;;18.60;99.90;;;;;;5015135;28;20187;-61
2021/09/02 07:34:45;;;;;;;10.97;9.87;;;18.80;99.90;;;;;;5015153;28;20163;-61
2021/09/02 07:37:11;;;;;;;11.50;9.90;;;18.90;99.90;;;;;;5013693;28;20216;-61
2021/09/02 07:39:40;;;;;;;14.83;10.60;;;19.00;99.90;;;;;;5014666;28;20182;-61
2021/09/02 07:42:06;;;;;;;11.40;9.20;;;19.10;99.90;;;;;;5014952;28;20190;-61
2021/09/02 07:44:32;;;;;;;11.17;9.90;;;19.30;99.90;;;;;;5014884;28;20413;-61
2021/09/02 07:46:58;;;;;;;10.80;9.70;;;19.70;99.90;;;;;;5014823;28;20937;-61
2021/09/02 07:49:23;;;;;;;10.47;9.53;;;19.80;99.90;;;;;;5014541;28;20175;-60
2021/09/02 07:51:49;;;;;;;10.37;9.30;;;19.80;99.90;;;;;;5014661;28;20204;-61
2021/09/02 07:54:14;;;;;;;10.33;9.33;;;20.00;99.90;;;;;;5014725;28;20190;-61
2021/09/02 07:56:40;;;;;;;10.07;9.07;;;20.30;99.90;;;;;;5014659;28;20203;-61
2021/09/02 07:59:06;;;;;;;9.70;8.80;;;20.60;99.90;;;;;;5014303;28;20194;-61
2021/09/02 08:01:31;;;;;;;9.53;8.53;;;20.50;99.90;;;;;;5014510;28;20686;-61
2021/09/02 08:03:57;;;;;;;10.13;9.33;;;20.60;99.90;;;;;;5014564;28;20179;-61
2021/09/02 08:06:22;;;;;;;10.70;9.60;;;20.70;99.90;;;;;;5014437;28;20179;-61
2021/09/02 08:08:48;;;;;;;10.57;9.60;;;20.70;99.90;;;;;;5014077;28;20277;-61
2021/09/02 08:11:14;;;;;;;12.57;10.30;;;20.80;99.90;;;;;;5014382;28;20258;-61
2021/09/02 08:13:39;;;;;;;9.73;8.83;;;21.10;99.90;;;;;;5014346;28;20610;-61
2021/09/02 08:16:06;;;;;;;10.00;9.20;;;21.40;99.90;;;;;;5014318;28;20171;-61
2021/09/02 08:18:31;;;;;;;8.93;8.10;;;21.50;99.90;;;;;;5012584;28;20206;-61
2021/09/02 08:20:57;;;;;;;10.30;9.40;;;21.00;99.90;;;;;;5014047;28;21089;-61
2021/09/02 08:23:22;;;;;;;9.20;8.50;;;21.00;99.90;;;;;;5014100;28;20676;-60
2021/09/02 08:25:48;;;;;;;10.43;8.30;;;21.00;99.90;;;;;;5013019;28;20668;-61
2021/09/02 08:28:15;;;;;;;9.27;8.47;;;21.20;99.90;;;;;;5013916;28;20564;-60
2021/09/02 08:30:41;;;;;;;10.57;8.73;;;21.50;99.90;;;;;;5012602;28;20171;-61
2021/09/02 08:33:06;;;;;;;8.97;8.20;;;21.40;99.90;;;;;;5013981;28;20429;-61
2021/09/02 08:35:33;;;;;;;9.33;8.33;;;21.50;99.90;;;;;;5013917;28;20421;-61
2021/09/02 08:38:02;;;;;;;9.87;8.83;;;21.50;99.90;;;;;;5013763;28;20206;-61
2021/09/02 08:40:31;;;;;;;9.33;8.37;;;21.60;99.90;;;;;;5013047;28;20456;-61
2021/09/02 08:42:57;;;;;;;8.50;7.10;;;21.70;99.90;;;;;;5013667;28;20418;-61
2021/09/02 08:45:25;;;;;;;9.10;8.00;;;22.30;99.90;;;;;;5013759;28;20505;-61
2021/09/02 08:47:51;;;;;;;8.10;7.40;;;22.50;99.90;;;;;;5013685;28;20430;-60
2021/09/02 08:50:21;;;;;;;8.60;7.87;;;22.80;99.90;;;;;;5013353;28;20421;-60
2021/09/02 08:52:47;;;;;;;8.30;7.60;;;23.20;99.90;;;;;;5013623;28;20429;-61
2021/09/02 08:55:14;;;;;;;9.07;8.27;;;23.40;99.90;;;;;;5012967;28;20422;-60
2021/09/02 08:57:40;;;;;;;7.87;7.17;;;23.20;99.90;;;;;;5013595;28;20449;-61
2021/09/02 09:00:07;;;;;;;9.70;8.90;;;23.50;99.90;;;;;;5013183;28;20426;-61
2021/09/02 09:02:33;;;;;;;8.87;8.03;;;23.90;99.90;;;;;;5013466;28;20175;-61
2021/09/02 09:05:03;;;;;;;8.13;7.43;;;24.40;99.90;;;;;;5011999;28;20437;-61
2021/09/02 09:07:41;;;;;;;8.00;7.40;;;24.50;99.90;;;;;;5013258;28;20445;-61
2021/09/02 09:10:15;;;;;;;9.30;8.50;;;24.50;99.90;;;;;;5011820;28;20449;-61
2021/09/02 09:12:44;;;;;;;8.93;8.07;;;24.80;99.50;;;;;;5013391;28;20410;-62
2021/09/02 09:15:17;;;;;;;8.20;7.50;;;25.10;98.70;;;;;;5013140;28;20505;-61
2021/09/02 09:17:43;;;;;;;8.80;8.00;;;25.30;98.60;;;;;;5013120;28;20516;-62
2021/09/02 09:20:09;;;;;;;7.93;7.00;;;25.70;98.40;;;;;;5012817;28;20468;-61
2021/09/02 09:22:36;;;;;;;7.97;6.70;;;26.10;96.50;;;;;;5013151;28;20422;-62
2021/09/02 09:25:04;;;;;;;7.63;6.93;;;26.20;96.30;;;;;;5013016;28;20425;-61
2021/09/02 09:27:39;;;;;;;7.57;6.90;;;27.10;95.10;;;;;;5012991;28;20536;-62
2021/09/02 09:30:12;;;;;;;8.30;7.67;;;27.50;93.50;;;;;;5012758;28;20421;-62
2021/09/02 09:32:41;;;;;;;7.10;6.50;;;27.60;92.10;;;;;;5013013;28;20500;-61
2021/09/02 09:35:10;;;;;;;7.43;6.83;;;27.30;91.40;;;;;;5012934;28;20559;-61
2021/09/02 09:37:36;;;;;;;9.60;8.80;;;26.70;92.00;;;;;;5012721;28;20452;-61
2021/09/02 09:40:16;;;;;;;7.60;7.00;;;26.60;91.30;;;;;;5011809;28;20425;-62
2021/09/02 09:42:56;;;;;;;8.73;8.03;;;26.80;91.80;;;;;;5012805;28;20191;-61
2021/09/02 09:45:35;;;;;;;8.17;7.37;;;26.90;91.20;;;;;;5012718;28;20444;-61
2021/09/02 09:48:01;;;;;;;8.00;7.40;;;27.40;90.20;;;;;;5012508;28;20434;-62
2021/09/02 09:50:26;;;;;;;9.57;8.67;;;27.70;89.00;;;;;;5012338;28;20452;-62
2021/09/02 09:52:52;;;;;;;7.83;7.20;;;28.00;87.30;;;;;;5012690;28;20178;-61
2021/09/02 09:55:17;;;;;;;7.47;6.87;;;29.10;86.70;;;;;;5012552;28;20182;-61
2021/09/02 09:57:46;;;;;;;9.53;8.73;;;29.20;82.80;;;;;;5012466;28;20225;-62
2021/09/02 10:00:16;;;;;;;7.37;6.80;;;29.00;83.30;;;;;;5012103;28;20179;-61
2021/09/02 10:02:44;;;;;;;7.63;7.03;;;29.10;79.40;;;;;;5012407;28;20433;-61
2021/09/02 10:05:12;;;;;;;8.20;7.50;;;28.80;80.70;;;;;;5012450;28;20423;-61
2021/09/02 10:07:41;;;;;;;7.50;6.90;;;28.70;78.80;;;;;;5011347;28;20441;-62
2021/09/02 10:10:09;;;;;;;7.47;6.97;;;28.60;78.50;;;;;;5012090;28;20417;-62
2021/09/02 10:12:36;;;;;;;7.63;7.03;;;28.60;77.50;;;;;;5012361;28;20426;-62
2021/09/02 10:15:07;;;;;;;8.40;7.70;;;28.70;77.60;;;;;;5012273;28;20418;-62
2021/09/02 10:17:34;;;;;;;7.73;7.10;;;28.90;76.90;;;;;;5012646;28;20454;-62
2021/09/02 10:20:09;;;;;;;7.97;7.37;;;29.30;75.30;;;;;;5011896;28;20418;-62
2021/09/02 10:22:35;;;;;;;7.83;6.70;;;29.80;73.30;;;;;;5012189;28;20772;-61
2021/09/02 10:25:01;;;;;;;7.63;7.03;;;29.70;73.50;;;;;;5012296;28;20856;-62
2021/09/02 10:27:26;;;;;;;9.20;8.37;;;29.80;73.30;;;;;;5012097;28;20477;-62
2021/09/02 10:29:54;;;;;;;7.47;6.87;;;30.30;71.40;;;;;;5011784;28;20217;-61
2021/09/02 10:32:23;;;;;;;7.30;6.70;;;30.30;71.30;;;;;;5012367;28;20593;-61
2021/09/02 10:34:52;;;;;;;7.37;6.67;;;31.30;68.10;;;;;;5012190;28;20455;-62
2021/09/02 10:37:36;;;;;;;7.13;6.53;;;30.80;67.90;;;;;;5011915;28;20449;-61
2021/09/02 10:40:08;;;;;;;7.77;7.17;;;31.40;68.40;;;;;;5011707;28;20472;-61
2021/09/02 10:42:45;;;;;;;8.10;7.40;;;31.10;65.30;;;;;;5012057;28;20409;-62
2021/09/02 10:45:35;;;;;;;7.77;7.03;;;31.00;66.10;;;;;;5011966;28;20414;-62
2021/09/02 10:48:08;;;;;;;9.17;7.93;;;30.60;64.80;;;;;;5004641;28;20445;-62
2021/09/02 10:50:39;;;;;;;6.80;6.20;;;30.40;65.30;;;;;;5011688;28;20489;-61
2021/09/02 10:53:08;;;;;;;7.07;6.47;;;30.60;65.80;;;;;;5011861;28;20986;-62
2021/09/02 10:55:36;;;;;;;7.03;6.43;;;31.70;63.20;;;;;;5012174;28;20777;-62
2021/09/02 10:58:06;;;;;;;6.50;5.90;;;31.20;62.00;;;;;;5011847;28;20438;-62
2021/09/02 11:00:35;;;;;;;7.80;7.20;;;32.20;63.20;;;;;;5011657;28;20449;-62
2021/09/02 11:03:14;;;;;;;5.93;5.53;;;32.40;59.80;;;;;;5011877;28;20472;-61
2021/09/02 11:05:42;;;;;;;6.70;6.20;;;32.50;58.50;;;;;;5011839;28;20483;-61
2021/09/02 11:08:08;;;;;;;7.23;6.53;;;33.10;57.10;;;;;;5011709;28;20792;-62
2021/09/02 11:10:34;;;;;;;7.63;7.03;;;32.50;56.60;;;;;;5011540;28;20421;-62
2021/09/02 11:13:07;;;;;;;6.57;6.07;;;33.50;56.10;;;;;;5011858;28;20425;-62
2021/09/02 11:15:37;;;;;;;6.43;5.93;;;33.20;54.50;;;;;;5011620;28;20426;-62
2021/09/02 11:18:04;;;;;;;6.30;5.80;;;33.00;54.50;;;;;;5011854;28;20531;-62
2021/09/02 11:20:32;;;;;;;6.60;6.10;;;32.50;55.10;;;;;;5015087;28;20631;-62
2021/09/02 11:23:18;;;;;;;6.27;5.80;;;34.10;55.30;;;;;;5015310;28;20780;-61
2021/09/02 11:25:49;;;;;;;5.63;5.13;;;34.80;52.00;;;;;;5015397;28;20428;-62
2021/09/02 11:28:18;;;;;;;6.20;5.80;;;34.80;51.70;;;;;;5015026;28;20491;-62
2021/09/02 11:30:44;;;;;;;6.90;6.27;;;34.90;50.20;;;;;;5015039;28;20422;-61
2021/09/02 11:33:10;;;;;;;5.90;5.37;;;34.80;49.90;;;;;;5015147;28;20428;-62
2021/09/02 11:35:36;;;;;;;5.60;5.20;;;33.90;50.30;;;;;;5013815;28;20645;-62
2021/09/02 11:38:02;;;;;;;6.30;5.80;;;34.30;50.40;;;;;;5015054;28;20191;-62
2021/09/02 11:40:38;;;;;;;4.90;4.60;;;35.40;47.70;;;;;;5014676;28;20549;-62
2021/09/02 11:43:14;;;;;;;6.37;5.67;;;35.40;48.10;;;;;;5015042;28;20414;-62
2021/09/02 11:45:39;;;;;;;5.23;4.83;;;34.70;47.00;;;;;;5014894;28;20417;-61
2021/09/02 11:48:06;;;;;;;5.70;5.30;;;34.90;47.90;;;;;;5015069;28;20780;-61
2021/09/02 11:50:33;;;;;;;6.17;5.43;;;35.00;48.00;;;;;;5014531;28;20225;-61
2021/09/02 11:52:58;;;;;;;5.37;5.00;;;35.10;48.00;;;;;;5014726;28;20426;-62
2021/09/02 11:55:28;;;;;;;5.27;4.87;;;35.20;46.60;;;;;;5015092;28;20916;-62
2021/09/02 11:57:59;;;;;;;4.93;4.53;;;35.50;46.50;;;;;;5014587;28;20187;-61
2021/09/02 12:00:25;;;;;;;6.47;5.73;;;35.50;45.10;;;;;;5014233;28;20460;-61
2021/09/02 12:02:53;;;;;;;5.43;5.00;;;35.60;44.20;;;;;;5014557;28;20417;-62
2021/09/02 12:05:21;;;;;;;5.77;5.37;;;34.80;44.90;;;;;;5014536;28;20453;-62
2021/09/02 12:07:51;;;;;;;5.27;4.87;;;34.30;46.30;;;;;;5014334;28;20813;-62
2021/09/02 12:10:18;;;;;;;6.80;6.30;;;35.00;46.20;;;;;;5014211;28;20926;-62
2021/09/02 12:12:44;;;;;;;6.43;5.93;;;34.50;46.30;;;;;;5014444;28;20858;-62
2021/09/02 12:15:29;;;;;;;5.97;5.50;;;35.30;45.80;;;;;;5014375;28;20418;-61
2021/09/02 12:18:05;;;;;;;5.50;5.10;;;36.90;45.60;;;;;;5014279;28;20488;-62
2021/09/02 12:20:31;;;;;;;6.07;5.47;;;36.20;44.50;;;;;;5013877;28;20468;-62
2021/09/02 12:22:56;;;;;;;5.60;5.10;;;36.10;44.10;;;;;;5014144;28;20471;-62
2021/09/02 12:25:22;;;;;;;5.83;5.43;;;35.60;44.10;;;;;;5014188;28;20183;-62
2021/09/02 12:27:52;;;;;;;9.33;5.20;;;35.10;45.00;;;;;;5014079;28;20241;-62
2021/09/02 12:30:41;;;;;;;5.57;5.07;;;36.40;45.20;;;;;;5012914;28;20171;-61
2021/09/02 12:33:09;;;;;;;6.17;5.67;;;38.20;50.00;;;;;;5014068;28;20421;-62
2021/09/02 12:35:39;;;;;;;5.97;5.57;;;37.60;48.90;;;;;;5013951;28;20501;-62
2021/09/02 12:38:04;;;;;;;5.77;5.27;;;36.30;48.90;;;;;;5013879;28;20430;-62
2021/09/02 12:40:30;;;;;;;4.93;4.53;;;35.10;50.20;;;;;;5012294;28;20967;-62
2021/09/02 12:43:15;;;;;;;7.10;5.23;;;35.50;49.50;;;;;;5013861;28;20194;-62